• Join FlightAware (Why Join?)
  • Login
  • US Flag 
06:43PM EDT


 

Airport Tracker/Info


-or-


 

Live Flight TrackerFlight Track Log ✈ UAL822 ✈ 01-May-2013 ✈ KIAD - KBOS

Flight Track Log - Related Links

Times and Time Zones

All times are in EDT time to prevent confusion due to time zone crossing. See the UAL822 flight status page for this flight to view local times or setup timezone preferences in your user account.

Time Position Orientation Groundspeed Altitude Reporting Facility
EDT Latitude Longitude Course Direction KTS MPH feet Rate Location/Type
05:30PM 38.9833 -77.5500 57° Northeast 219 252 2,500  Level Potomac TRACON
05:31PM 39.0333 -77.5833 333° Northwest 237 273 5,600 2,940 Climbing Potomac TRACON
05:32PM 39.0102 -77.0610 77° East  Level FlightAware Approximate
05:32PM 39.1000 -77.5333 30° Northeast 261 300 8,400  Level Potomac TRACON
05:33PM 39.0346 -76.9255 78° East  Level FlightAware Approximate
05:33PM 39.1500 -77.4667 46° Northeast 304 350 10,000  Level Potomac TRACON
05:34PM 39.0574 -76.7894 78° East  Level FlightAware Approximate
05:34PM 39.1667 -77.3333 81° East 380 437 10,100  Level Potomac TRACON
05:35PM 39.0730 -76.6539 57° Northeast  Level FlightAware Approximate
05:36PM 39.0956 -77.1028 112° Southeast 392 451 11,600  Level Washington Center
05:37PM 39.0764 -76.9658 100° East 384 442 14,600 2,580 Climbing Washington Center
05:38PM 39.0903 -76.8353 82° East 356 410 16,800 1,980 Climbing Washington Center
05:39PM 39.1042 -76.7017 82° East 356 410 18,600 1,800 Climbing Washington Center
05:40PM 39.1178 -76.5600 83° East 376 433 20,500 1,740 Climbing Washington Center
05:41PM 39.1314 -76.4158 83° East 388 447 22,100 1,260 Climbing Washington Center
05:42PM 39.1450 -76.2661 83° East 409 471 23,000 420 Climbing Washington Center
05:43PM 39.1667 -76.1003 80° East 417 480 23,000  Level Washington Center
05:44PM 39.1839 -75.9531 81° East 422 486 23,000  Level Washington Center
05:45PM 39.2361 -75.8247 62° Northeast 408 470 23,000  Level Washington Center
05:46PM 39.3175 -75.7203 45° Northeast 392 451 23,000  Level Washington Center
05:47PM 39.3969 -75.6158 45° Northeast 397 457 23,000 300 Level Washington Center
05:48PM 39.4822 -75.5081 44° Northeast 402 463 23,600 900 Climbing Washington Center
05:49PM 39.5675 -75.3978 45° Northeast 415 478 24,900 1,200 Climbing Washington Center
05:50PM 39.6528 -75.2817 46° Northeast 430 495 26,100 1,080 Climbing Washington Center
05:51PM 39.7378 -75.1653 46° Northeast 435 501 27,100 1,380 Climbing Washington Center
05:52PM 39.8258 -75.0361 48° Northeast 452 520 28,900 900 Climbing New York Center
05:53PM 39.9072 -74.9194 48° Northeast 456 525 29,000  Climbing New York Center
05:54PM 39.9817 -74.8128 48° Northeast 445 512 29,000  Level New York Center
05:55PM 40.0717 -74.6797 49° Northeast 440 506 29,000  Level New York Center
05:56PM 40.1442 -74.5697 49° Northeast 440 506 29,000  Level New York Center
05:57PM 40.2253 -74.4464 49° Northeast 440 506 29,000 -60 Level New York Center
05:58PM 40.3039 -74.3225 50° Northeast 446 513 28,900  Descending New York Center
05:59PM 40.3828 -74.1958 51° Northeast 441 507 29,000  Climbing New York Center
06:00PM 40.4614 -74.0717 50° Northeast 441 507 29,000 -300 Level New York Center
06:01PM 40.5397 -73.9444 51° Northeast 441 507 28,400 -1,380 Descending New York Center
06:02PM 40.6203 -73.8222 49° Northeast 441 507 26,300 -2,160 Descending New York Center
06:03PM 40.7003 -73.7000 49° Northeast 441 507 24,100 -960 Descending New York Center
06:05PM 40.8178 -73.5014 52° Northeast 453 521 23,900 -60 Descending Boston Center
06:06PM 40.8939 -73.3819 50° Northeast 441 507 24,000 -360 Climbing Boston Center
06:07PM 40.9739 -73.2758 45° Northeast 419 482 23,200 -900 Descending Boston Center
06:08PM 41.0414 -73.1639 51° Northeast 396 456 22,200 -960 Descending Boston Center
06:09PM 41.1231 -73.0958 32° Northeast 366 421 21,300 -600 Descending Boston Center
06:10PM 41.1839 -73.0000 50° Northeast 352 405 21,000 -180 Descending Boston Center
06:11PM 41.2408 -72.8486 63° Northeast 356 410 21,000  Level Boston Center
06:12PM 41.2956 -72.7081 63° Northeast 375 432 21,000  Level Boston Center
06:13PM 41.3417 -72.5811 64° Northeast 380 437 21,000  Level Boston Center
06:14PM 41.3875 -72.4594 63° Northeast 380 437 21,000 -60 Level Boston Center
06:15PM 41.4064 -72.3458 77° East 324 373 20,900  Descending Boston Center
06:16PM 41.3644 -72.2161 113° Southeast 318 366 21,000  Climbing Boston Center
06:17PM 41.3308 -72.0917 110° East 330 380 21,000  Level Boston Center
06:18PM 41.3094 -71.9428 101° East 337 388 21,000 -60 Level Boston Center
06:19PM 41.2858 -71.8186 104° East 342 394 20,900 -660 Descending Boston Center
06:20PM 41.2914 -71.6997 86° East 342 394 19,700 -1,440 Descending Boston Center
06:21PM 41.3722 -71.6489 25° Northeast 267 307 18,100 -1,740 Descending Boston Center
06:22PM 41.4594 -71.5953 25° Northeast 291 335 16,300 -1,740 Descending Boston Center
06:23PM 41.5278 -71.5528 25° Northeast 303 349 14,700 -1,680 Descending Boston Center
06:24PM 41.5964 -71.5103 25° Northeast 297 342 13,000 -1,800 Descending Boston Center
06:25PM 41.6769 -71.4394 33° Northeast 291 335 11,100 -1,020 Descending Boston Center
06:26PM 41.7325 -71.3664 44° Northeast 285 328 11,000 -60 Descending Boston Center
06:27PM 41.7861 -71.2875 48° Northeast 279 321 11,000 -120 Level Boston Center
06:28PM 41.8586 -71.2500 21° North 274 315 10,800 -1,020 Descending Boston Center
06:29PM 41.9311 -71.2122 21° North 274 315 9,000 -1,620 Descending Boston Center
06:30PM 42.0017 -71.1800 19° North 274 315 7,600 -1,680 Descending Boston Center
06:31PM 42.0700 -71.1481 19° North 268 308 5,700 -1,680 Descending Boston Center
06:32PM 42.1500 -71.1167 16° North 256 295 4,200 -1,140 Descending KA90
06:33PM 42.2167 -71.0833 20° North 231 266 3,400 -840 Descending KA90